Time;durP1;ratioP1;P1;durP2;ratioP2;P2;SDS_P1;SDS_P2;PMS_P1;PMS_P2;Temp;Humidity;BMP_temperature;BMP_pressure;BME280_temperature;BME280_humidity;BME280_pressure;Samples;Min_cycle;Max_cycle;Signal;HPM_P1;HPM_P2
2022/07/02 00:02:24;;;;;;;;;;;;;;;;;;5092410;28;19963;-86
2022/07/02 00:04:50;;;;;;;;;;;;;;;;;;5064538;28;19924;-86
2022/07/02 00:07:16;;;;;;;;;;;;;;;;;;5089530;28;19975;-87
2022/07/02 00:09:42;;;;;;;;;;;;;;;;;;5100438;28;20363;-86
2022/07/02 00:12:08;;;;;;;;;;;;;;;;;;5075285;28;19924;-86
2022/07/02 00:14:34;;;;;;;;;;;;;;;;;;5075467;28;19924;-87
2022/07/02 00:17:00;;;;;;;;;;;;;;;;;;5099502;28;19931;-86
2022/07/02 00:19:26;;;;;;;;;;;;;;;;;;5100897;28;20365;-85
2022/07/02 00:21:52;;;;;;;;;;;;;;;;;;5092706;28;20015;-87
2022/07/02 00:24:18;;;;;;;;;;;;;;;;;;5075119;28;19927;-86
2022/07/02 00:26:44;;;;;;;;;;;;;;;;;;5090671;28;19924;-88
2022/07/02 00:29:10;;;;;;;;;;;;;;;;;;5075000;28;19928;-86
2022/07/02 00:31:36;;;;;;;;;;;;;;;;;;5109177;28;20014;-86
2022/07/02 00:34:01;;;;;;;;;;;;;;;;;;5090714;28;19942;-86
2022/07/02 00:36:31;;;;;;;;;;;;;;;;;;5075204;28;19924;-85
2022/07/02 00:38:57;;;;;;;;;;;;;;;;;;5077000;28;19963;-86
2022/07/02 00:41:23;;;;;;;;;;;;;;;;;;5101001;28;19924;-86
2022/07/02 00:43:50;;;;;;;;;;;;;;;;;;5108879;28;19938;-86
2022/07/02 00:46:16;;;;;;;;;;;;;;;;;;5098343;28;19931;-87
2022/07/02 00:48:42;;;;;;;;;;;;;;;;;;5091207;28;20010;-87
2022/07/02 00:51:08;;;;;;;;;;;;;;;;;;5064271;28;19972;-86
2022/07/02 00:53:34;;;;;;;;;;;;;;;;;;5107015;28;20309;-86
2022/07/02 00:56:00;;;;;;;;;;;;;;;;;;5094135;28;20042;-86
2022/07/02 00:58:25;;;;;;;;;;;;;;;;;;5092938;28;19928;-86
2022/07/02 01:00:51;;;;;;;;;;;;;;;;;;5091900;28;19928;-87
2022/07/02 01:03:17;;;;;;;;;;;;;;;;;;5058066;28;20295;-86
2022/07/02 01:05:43;;;;;;;;;;;;;;;;;;5058506;28;19982;-86
2022/07/02 01:10:54;;;;;;;;;;;;;;;;;;5117543;28;19924;-87
2022/07/02 01:13:20;;;;;;;;;;;;;;;;;;5110315;28;20380;-88
2022/07/02 01:15:46;;;;;;;;;;;;;;;;;;5109267;28;20083;-87
2022/07/02 01:18:17;;;;;;;;;;;;;;;;;;5073242;28;19969;-87
2022/07/02 01:20:43;;;;;;;;;;;;;;;;;;5072817;28;19924;-88
2022/07/02 01:23:09;;;;;;;;;;;;;;;;;;5074805;28;19935;-87
2022/07/02 01:25:36;;;;;;;;;;;;;;;;;;5108945;28;19923;-85
2022/07/02 01:28:02;;;;;;;;;;;;;;;;;;5095461;28;19930;-90
2022/07/02 01:30:27;;;;;;;;;;;;;;;;;;5070275;28;20010;-85
2022/07/02 01:32:59;;;;;;;;;;;;;;;;;;5074929;28;19935;-86
2022/07/02 01:35:25;;;;;;;;;;;;;;;;;;5071082;28;20003;-85
2022/07/02 01:37:52;;;;;;;;;;;;;;;;;;5074240;28;19928;-87
2022/07/02 01:40:18;;;;;;;;;;;;;;;;;;5074636;28;19930;-87
2022/07/02 01:42:44;;;;;;;;;;;;;;;;;;5074783;28;19975;-87
2022/07/02 01:45:10;;;;;;;;;;;;;;;;;;5073462;28;19931;-87
2022/07/02 01:47:36;;;;;;;;;;;;;;;;;;5065376;28;19924;-87
2022/07/02 01:50:02;;;;;;;;;;;;;;;;;;5074508;28;19928;-88
2022/07/02 01:52:28;;;;;;;;;;;;;;;;;;5073913;28;20278;-87
2022/07/02 01:54:54;;;;;;;;;;;;;;;;;;5090810;28;19977;-88
2022/07/02 01:57:20;;;;;;;;;;;;;;;;;;5098116;28;20383;-87
2022/07/02 01:59:46;;;;;;;;;;;;;;;;;;5093812;28;19939;-87
2022/07/02 02:02:12;;;;;;;;;;;;;;;;;;5094469;28;20351;-88
2022/07/02 02:04:39;;;;;;;;;;;;;;;;;;5105106;28;19947;-86
2022/07/02 02:07:05;;;;;;;;;;;;;;;;;;5110933;28;20366;-86
2022/07/02 02:09:31;;;;;;;;;;;;;;;;;;5078034;28;19931;-86
2022/07/02 02:11:57;;;;;;;;;;;;;;;;;;5095615;28;20018;-87
2022/07/02 02:14:23;;;;;;;;;;;;;;;;;;5069898;28;20017;-87
2022/07/02 02:16:49;;;;;;;;;;;;;;;;;;5078538;28;19924;-87
2022/07/02 02:19:15;;;;;;;;;;;;;;;;;;5078082;28;19924;-87
2022/07/02 02:21:40;;;;;;;;;;;;;;;;;;5060890;28;19931;-87
2022/07/02 02:24:06;;;;;;;;;;;;;;;;;;5077913;28;19924;-87
2022/07/02 02:26:33;;;;;;;;;;;;;;;;;;5061095;28;20370;-86
2022/07/02 02:28:59;;;;;;;;;;;;;;;;;;5078193;28;20457;-87
2022/07/02 02:31:24;;;;;;;;;;;;;;;;;;5093931;28;19930;-86
2022/07/02 02:33:50;;;;;;;;;;;;;;;;;;5112165;27;19924;-88
2022/07/02 02:36:16;;;;;;;;;;;;;;;;;;5077222;28;20007;-88
2022/07/02 02:38:42;;;;;;;;;;;;;;;;;;5131642;27;19924;-87
2022/07/02 02:41:09;;;;;;;;;;;;;;;;;;5080254;28;19928;-88
2022/07/02 02:43:35;;;;;;;;;;;;;;;;;;5077434;28;19949;-86
2022/07/02 02:46:00;;;;;;;;;;;;;;;;;;5088424;28;19937;-87
2022/07/02 02:48:26;;;;;;;;;;;;;;;;;;5111120;27;19962;-87
2022/07/02 02:50:52;;;;;;;;;;;;;;;;;;5094086;28;19930;-87
2022/07/02 02:53:18;;;;;;;;;;;;;;;;;;5060285;28;19924;-88
2022/07/02 02:55:44;;;;;;;;;;;;;;;;;;5079553;28;20352;-87
2022/07/02 02:58:10;;;;;;;;;;;;;;;;;;5109488;28;20355;-90
2022/07/02 03:00:36;;;;;;;;;;;;;;;;;;5072135;28;20034;-89
2022/07/02 03:03:02;;;;;;;;;;;;;;;;;;5108461;28;20379;-89
2022/07/02 03:05:28;;;;;;;;;;;;;;;;;;5078406;28;20288;-88
2022/07/02 03:07:54;;;;;;;;;;;;;;;;;;5093407;28;20382;-88
2022/07/02 03:10:20;;;;;;;;;;;;;;;;;;5092849;28;19977;-89
2022/07/02 03:12:46;;;;;;;;;;;;;;;;;;5067068;28;19924;-88
2022/07/02 03:15:12;;;;;;;;;;;;;;;;;;5102327;28;19924;-91
2022/07/02 03:17:38;;;;;;;;;;;;;;;;;;5093233;28;19928;-89
2022/07/02 03:20:04;;;;;;;;;;;;;;;;;;5061444;28;20401;-89
2022/07/02 03:22:30;;;;;;;;;;;;;;;;;;5075050;28;19928;-87
2022/07/02 03:24:56;;;;;;;;;;;;;;;;;;5093852;28;19979;-89
2022/07/02 03:27:22;;;;;;;;;;;;;;;;;;5110698;27;19924;-87
2022/07/02 03:29:48;;;;;;;;;;;;;;;;;;5077000;28;19947;-89
2022/07/02 03:32:14;;;;;;;;;;;;;;;;;;5060177;28;19928;-90
2022/07/02 03:34:40;;;;;;;;;;;;;;;;;;5060867;28;19951;-88
2022/07/02 03:37:06;;;;;;;;;;;;;;;;;;5093663;28;19924;-89
2022/07/02 03:39:32;;;;;;;;;;;;;;;;;;5099443;28;19924;-87
2022/07/02 03:41:57;;;;;;;;;;;;;;;;;;5097982;28;19949;-89
2022/07/02 03:44:23;;;;;;;;;;;;;;;;;;5111436;28;19931;-89
2022/07/02 03:46:49;;;;;;;;;;;;;;;;;;5059814;28;19963;-89
2022/07/02 03:49:15;;;;;;;;;;;;;;;;;;5078613;28;19973;-90
2022/07/02 03:51:41;;;;;;;;;;;;;;;;;;5098399;28;20302;-88
2022/07/02 03:54:07;;;;;;;;;;;;;;;;;;5077204;28;19924;-89
2022/07/02 03:56:33;;;;;;;;;;;;;;;;;;5093610;28;19993;-88
2022/07/02 03:58:59;;;;;;;;;;;;;;;;;;5069515;28;20379;-88
2022/07/02 04:01:25;;;;;;;;;;;;;;;;;;5112676;28;19972;-88
2022/07/02 04:03:51;;;;;;;;;;;;;;;;;;5104239;28;19931;-89
2022/07/02 04:06:17;;;;;;;;;;;;;;;;;;5075564;28;19928;-89
2022/07/02 04:08:43;;;;;;;;;;;;;;;;;;5066868;28;19924;-90
2022/07/02 04:11:09;;;;;;;;;;;;;;;;;;5076150;28;19939;-89
2022/07/02 04:13:35;;;;;;;;;;;;;;;;;;5078152;28;19925;-89
2022/07/02 04:16:01;;;;;;;;;;;;;;;;;;5092675;28;20026;-89
2022/07/02 04:18:27;;;;;;;;;;;;;;;;;;5087718;28;19924;-88
2022/07/02 04:20:53;;;;;;;;;;;;;;;;;;5075937;28;19931;-89
2022/07/02 04:23:18;;;;;;;;;;;;;;;;;;5075086;28;19931;-89
2022/07/02 04:25:44;;;;;;;;;;;;;;;;;;5092680;28;19931;-89
2022/07/02 04:28:12;;;;;;;;;;;;;;;;;;5059343;28;19924;-90
2022/07/02 04:30:38;;;;;;;;;;;;;;;;;;5058698;28;19924;-89
2022/07/02 04:33:03;;;;;;;;;;;;;;;;;;5075376;28;19931;-89
2022/07/02 04:35:30;;;;;;;;;;;;;;;;;;5082699;28;19957;-89
2022/07/02 04:37:56;;;;;;;;;;;;;;;;;;5075772;28;20005;-89
2022/07/02 04:40:22;;;;;;;;;;;;;;;;;;5058252;28;19928;-89
2022/07/02 04:42:47;;;;;;;;;;;;;;;;;;5075596;28;19924;-89
2022/07/02 04:45:13;;;;;;;;;;;;;;;;;;5094851;28;19928;-89
2022/07/02 04:47:39;;;;;;;;;;;;;;;;;;5088047;28;20119;-89
2022/07/02 04:50:05;;;;;;;;;;;;;;;;;;5068376;28;19930;-89
2022/07/02 04:52:31;;;;;;;;;;;;;;;;;;5110712;28;19928;-89
2022/07/02 04:54:57;;;;;;;;;;;;;;;;;;5092376;28;19935;-89
2022/07/02 04:57:23;;;;;;;;;;;;;;;;;;5075331;28;19930;-90
2022/07/02 04:59:49;;;;;;;;;;;;;;;;;;5075051;28;19971;-90
2022/07/02 05:02:15;;;;;;;;;;;;;;;;;;5087973;28;19931;-90
2022/07/02 05:04:41;;;;;;;;;;;;;;;;;;5083606;28;20191;-89
2022/07/02 05:07:07;;;;;;;;;;;;;;;;;;5081559;28;19923;-89
2022/07/02 05:09:33;;;;;;;;;;;;;;;;;;5074895;28;19924;-89
2022/07/02 05:12:00;;;;;;;;;;;;;;;;;;5074807;28;19978;-89
2022/07/02 05:14:26;;;;;;;;;;;;;;;;;;5093305;28;19924;-88
2022/07/02 05:16:52;;;;;;;;;;;;;;;;;;5078064;28;20306;-89
2022/07/02 05:19:18;;;;;;;;;;;;;;;;;;5063868;28;20010;-90
2022/07/02 05:21:44;;;;;;;;;;;;;;;;;;5075007;28;19924;-89
2022/07/02 05:24:10;;;;;;;;;;;;;;;;;;5088825;28;19930;-89
2022/07/02 05:26:36;;;;;;;;;;;;;;;;;;5091462;28;19931;-89
2022/07/02 05:29:02;;;;;;;;;;;;;;;;;;5075032;28;20064;-89
2022/07/02 05:31:28;;;;;;;;;;;;;;;;;;5062450;28;19924;-88
2022/07/02 05:33:54;;;;;;;;;;;;;;;;;;5090255;28;20279;-89
2022/07/02 05:36:20;;;;;;;;;;;;;;;;;;5107747;28;20018;-90
2022/07/02 05:38:46;;;;;;;;;;;;;;;;;;5098350;28;19974;-89
2022/07/02 05:41:12;;;;;;;;;;;;;;;;;;5081539;28;19994;-89
2022/07/02 05:43:37;;;;;;;;;;;;;;;;;;5111981;27;20280;-89
2022/07/02 05:46:03;;;;;;;;;;;;;;;;;;5079054;28;19935;-90
2022/07/02 05:48:29;;;;;;;;;;;;;;;;;;5114595;28;19934;-89
2022/07/02 05:50:55;;;;;;;;;;;;;;;;;;5108056;28;19924;-89
2022/07/02 05:53:21;;;;;;;;;;;;;;;;;;5067622;28;20170;-90
2022/07/02 05:55:47;;;;;;;;;;;;;;;;;;5084857;28;20320;-90
2022/07/02 05:58:13;;;;;;;;;;;;;;;;;;5063166;28;20385;-90
2022/07/02 06:00:39;;;;;;;;;;;;;;;;;;5095140;28;20342;-89
2022/07/02 06:03:05;;;;;;;;;;;;;;;;;;5103430;28;20252;-89
2022/07/02 06:08:16;;;;;;;;;;;;;;;;;;5078027;28;19928;-87
2022/07/02 06:10:42;;;;;;;;;;;;;;;;;;5093993;28;19924;-88
2022/07/02 06:13:08;;;;;;;;;;;;;;;;;;5079516;28;19924;-89
2022/07/02 06:15:34;;;;;;;;;;;;;;;;;;5113498;28;19992;-88
2022/07/02 06:18:00;;;;;;;;;;;;;;;;;;5097215;28;19928;-88
2022/07/02 06:20:26;;;;;;;;;;;;;;;;;;5076889;28;20385;-87
2022/07/02 06:22:52;;;;;;;;;;;;;;;;;;5076956;28;19924;-89
2022/07/02 06:25:18;;;;;;;;;;;;;;;;;;5080532;28;19923;-89
2022/07/02 06:27:44;;;;;;;;;;;;;;;;;;5096660;28;19973;-88
2022/07/02 06:30:10;;;;;;;;;;;;;;;;;;5088026;28;19935;-88
2022/07/02 06:32:36;;;;;;;;;;;;;;;;;;5077291;28;20015;-88
2022/07/02 06:35:02;;;;;;;;;;;;;;;;;;5077573;28;20011;-88
2022/07/02 06:37:28;;;;;;;;;;;;;;;;;;5073101;28;19990;-87
2022/07/02 06:39:54;;;;;;;;;;;;;;;;;;5077328;28;19924;-89
2022/07/02 06:42:20;;;;;;;;;;;;;;;;;;5069593;28;19976;-90
2022/07/02 06:44:46;;;;;;;;;;;;;;;;;;5094005;28;19967;-88
2022/07/02 06:47:12;;;;;;;;;;;;;;;;;;5079462;28;19934;-88
2022/07/02 06:49:38;;;;;;;;;;;;;;;;;;5077786;28;20003;-88
2022/07/02 06:52:04;;;;;;;;;;;;;;;;;;5076939;28;19925;-88
2022/07/02 06:54:30;;;;;;;;;;;;;;;;;;5062005;28;20036;-89
2022/07/02 06:56:56;;;;;;;;;;;;;;;;;;5093821;28;19924;-89
2022/07/02 06:59:22;;;;;;;;;;;;;;;;;;5076750;28;19955;-89
2022/07/02 07:01:48;;;;;;;;;;;;;;;;;;5060021;28;19932;-90
2022/07/02 07:04:14;;;;;;;;;;;;;;;;;;5076812;28;19935;-89
2022/07/02 07:06:43;;;;;;;;;;;;;;;;;;5059847;28;19932;-88
2022/07/02 07:09:09;;;;;;;;;;;;;;;;;;5078501;28;20367;-89
2022/07/02 07:11:35;;;;;;;;;;;;;;;;;;5086023;28;19977;-88
2022/07/02 07:14:01;;;;;;;;;;;;;;;;;;5067529;28;19986;-88
2022/07/02 07:16:27;;;;;;;;;;;;;;;;;;5076937;28;19924;-88
2022/07/02 07:19:04;;;;;;;;;;;;;;;;;;5084584;28;19928;-89
2022/07/02 07:21:30;;;;;;;;;;;;;;;;;;5076495;28;19939;-88
2022/07/02 07:23:56;;;;;;;;;;;;;;;;;;5074075;28;19924;-88
2022/07/02 07:26:22;;;;;;;;;;;;;;;;;;5075112;28;19924;-87
2022/07/02 07:28:48;;;;;;;;;;;;;;;;;;5076589;28;19973;-89
2022/07/02 07:31:16;;;;;;;;;;;;;;;;;;5092762;28;19935;-89
2022/07/02 07:33:42;;;;;;;;;;;;;;;;;;5075992;28;20011;-88
2022/07/02 07:36:07;;;;;;;;;;;;;;;;;;5104199;28;19974;-89
2022/07/02 07:38:33;;;;;;;;;;;;;;;;;;5076385;28;19932;-88
2022/07/02 07:40:59;;;;;;;;;;;;;;;;;;5094735;28;19942;-89
2022/07/02 07:43:25;;;;;;;;;;;;;;;;;;5101796;28;20351;-89
2022/07/02 07:45:51;;;;;;;;;;;;;;;;;;5092247;28;20271;-89
2022/07/02 07:48:19;;;;;;;;;;;;;;;;;;5060010;28;20368;-89
2022/07/02 07:50:45;;;;;;;;;;;;;;;;;;5095353;28;19955;-86
2022/07/02 07:53:11;;;;;;;;;;;;;;;;;;5104492;28;20263;-88
2022/07/02 07:55:39;;;;;;;;;;;;;;;;;;5075583;28;19932;-89
2022/07/02 07:58:05;;;;;;;;;;;;;;;;;;5092667;28;20363;-88
2022/07/02 08:00:31;;;;;;;;;;;;;;;;;;5092437;28;19974;-88
2022/07/02 08:02:57;;;;;;;;;;;;;;;;;;5089837;28;20442;-87
2022/07/02 08:05:23;;;;;;;;;;;;;;;;;;5092750;28;19931;-89
2022/07/02 08:07:49;;;;;;;;;;;;;;;;;;5075002;28;20022;-89
2022/07/02 08:10:15;;;;;;;;;;;;;;;;;;5074901;28;19931;-89
2022/07/02 08:12:41;;;;;;;;;;;;;;;;;;5084380;28;19924;-88
2022/07/02 08:15:07;;;;;;;;;;;;;;;;;;5075305;28;20371;-88
2022/07/02 08:17:33;;;;;;;;;;;;;;;;;;5068437;28;19931;-87
2022/07/02 08:19:59;;;;;;;;;;;;;;;;;;5091852;28;19924;-88
2022/07/02 08:22:25;;;;;;;;;;;;;;;;;;5091292;28;19931;-87
2022/07/02 08:24:51;;;;;;;;;;;;;;;;;;5089908;28;19925;-88
2022/07/02 08:27:17;;;;;;;;;;;;;;;;;;5074700;28;19981;-91
2022/07/02 08:29:43;;;;;;;;;;;;;;;;;;5075123;28;19924;-88
2022/07/02 08:32:08;;;;;;;;;;;;;;;;;;5074928;28;20038;-88
2022/07/02 08:34:34;;;;;;;;;;;;;;;;;;5071315;28;19973;-88
2022/07/02 08:37:00;;;;;;;;;;;;;;;;;;5093022;28;19924;-88
2022/07/02 08:39:26;;;;;;;;;;;;;;;;;;5074724;28;19924;-88
2022/07/02 08:41:52;;;;;;;;;;;;;;;;;;5080570;28;19963;-89
2022/07/02 08:44:18;;;;;;;;;;;;;;;;;;5092145;28;19924;-89
2022/07/02 08:46:44;;;;;;;;;;;;;;;;;;5073784;28;19924;-89
2022/07/02 08:49:10;;;;;;;;;;;;;;;;;;5058503;28;19939;-89
2022/07/02 08:51:36;;;;;;;;;;;;;;;;;;5075199;28;19924;-88
2022/07/02 08:54:02;;;;;;;;;;;;;;;;;;5091227;28;19935;-88
2022/07/02 08:56:28;;;;;;;;;;;;;;;;;;5081603;28;20015;-87
2022/07/02 08:58:54;;;;;;;;;;;;;;;;;;5074735;28;19931;-88
2022/07/02 09:01:20;;;;;;;;;;;;;;;;;;5080030;28;20073;-88
2022/07/02 09:03:46;;;;;;;;;;;;;;;;;;5078428;28;19932;-88
2022/07/02 09:06:12;;;;;;;;;;;;;;;;;;5078475;28;19984;-87
2022/07/02 09:08:38;;;;;;;;;;;;;;;;;;5078621;28;19924;-87
2022/07/02 09:11:04;;;;;;;;;;;;;;;;;;5079105;28;19939;-87
2022/07/02 09:13:30;;;;;;;;;;;;;;;;;;5095657;28;19927;-87
2022/07/02 09:15:56;;;;;;;;;;;;;;;;;;5077810;28;19924;-87
2022/07/02 09:18:22;;;;;;;;;;;;;;;;;;5079192;28;20397;-86
2022/07/02 09:20:47;;;;;;;;;;;;;;;;;;5112507;27;20492;-86
2022/07/02 09:23:20;;;;;;;;;;;;;;;;;;5075643;28;20033;-87
2022/07/02 09:25:46;;;;;;;;;;;;;;;;;;5078275;28;19927;-87
2022/07/02 09:28:11;;;;;;;;;;;;;;;;;;5083259;28;19930;-86
2022/07/02 09:30:38;;;;;;;;;;;;;;;;;;5088374;28;19931;-85
2022/07/02 09:35:48;;;;;;;;;;;;;;;;;;5122038;27;19968;-86
2022/07/02 09:38:14;;;;;;;;;;;;;;;;;;5090068;28;19984;-88
2022/07/02 09:40:40;;;;;;;;;;;;;;;;;;5078285;28;19928;-87
2022/07/02 09:43:06;;;;;;;;;;;;;;;;;;5064228;28;19931;-88
2022/07/02 09:45:32;;;;;;;;;;;;;;;;;;5128971;27;19924;-87
2022/07/02 09:47:58;;;;;;;;;;;;;;;;;;5080998;28;19968;-89
2022/07/02 09:50:24;;;;;;;;;;;;;;;;;;5061505;28;19924;-88
2022/07/02 09:52:50;;;;;;;;;;;;;;;;;;5085405;28;20397;-88
2022/07/02 09:55:16;;;;;;;;;;;;;;;;;;5095068;28;19928;-86
2022/07/02 09:57:42;;;;;;;;;;;;;;;;;;5078079;28;19931;-86
2022/07/02 10:00:08;;;;;;;;;;;;;;;;;;5104689;28;19923;-87
2022/07/02 10:02:34;;;;;;;;;;;;;;;;;;5095819;28;20006;-86
2022/07/02 10:05:00;;;;;;;;;;;;;;;;;;5088001;28;19979;-87
2022/07/02 10:07:26;;;;;;;;;;;;;;;;;;5088222;28;19928;-86
2022/07/02 10:09:52;;;;;;;;;;;;;;;;;;5111881;27;19931;-87
2022/07/02 10:12:18;;;;;;;;;;;;;;;;;;5068332;28;19924;-87
2022/07/02 10:14:45;;;;;;;;;;;;;;;;;;5078380;28;19924;-88
2022/07/02 10:17:10;;;;;;;;;;;;;;;;;;5063365;28;19928;-87
2022/07/02 10:19:36;;;;;;;;;;;;;;;;;;5094571;28;19992;-86
2022/07/02 10:22:03;;;;;;;;;;;;;;;;;;5076224;28;19924;-86
2022/07/02 10:24:29;;;;;;;;;;;;;;;;;;5091652;28;19931;-85
2022/07/02 10:26:54;;;;;;;;;;;;;;;;;;5077829;28;19932;-86
2022/07/02 10:29:20;;;;;;;;;;;;;;;;;;5088154;28;19978;-86
2022/07/02 10:31:46;;;;;;;;;;;;;;;;;;5078012;28;19924;-87
2022/07/02 10:34:12;;;;;;;;;;;;;;;;;;5092348;28;19928;-86
2022/07/02 10:36:38;;;;;;;;;;;;;;;;;;5094749;28;19960;-87
2022/07/02 10:39:06;;;;;;;;;;;;;;;;;;5083801;28;19963;-86
2022/07/02 10:41:31;;;;;;;;;;;;;;;;;;5077490;28;20015;-86
2022/07/02 10:43:57;;;;;;;;;;;;;;;;;;5077738;28;19967;-87
2022/07/02 10:46:26;;;;;;;;;;;;;;;;;;5077689;28;19970;-88
2022/07/02 10:48:52;;;;;;;;;;;;;;;;;;5092808;28;20023;-88
2022/07/02 10:51:18;;;;;;;;;;;;;;;;;;5093800;28;20379;-87
2022/07/02 10:53:44;;;;;;;;;;;;;;;;;;5095664;28;19928;-88
2022/07/02 10:56:10;;;;;;;;;;;;;;;;;;5089150;28;19935;-87
2022/07/02 10:58:36;;;;;;;;;;;;;;;;;;5079373;28;19924;-87
2022/07/02 11:01:02;;;;;;;;;;;;;;;;;;5091368;28;19924;-87
2022/07/02 11:03:28;;;;;;;;;;;;;;;;;;5069241;28;20003;-86
2022/07/02 11:05:54;;;;;;;;;;;;;;;;;;5092889;28;19924;-87
2022/07/02 11:08:20;;;;;;;;;;;;;;;;;;5076211;28;20275;-87
2022/07/02 11:10:46;;;;;;;;;;;;;;;;;;5075423;28;19925;-88
2022/07/02 11:13:12;;;;;;;;;;;;;;;;;;5076828;28;19924;-88
2022/07/02 11:15:38;;;;;;;;;;;;;;;;;;5110533;27;19924;-87
2022/07/02 11:18:04;;;;;;;;;;;;;;;;;;5079712;28;20358;-87
2022/07/02 11:20:30;;;;;;;;;;;;;;;;;;5076787;28;19928;-86
2022/07/02 11:22:56;;;;;;;;;;;;;;;;;;5077974;28;19931;-87
2022/07/02 11:25:22;;;;;;;;;;;;;;;;;;5105469;28;19924;-87
2022/07/02 11:27:48;;;;;;;;;;;;;;;;;;5077699;28;19949;-88
2022/07/02 11:30:14;;;;;;;;;;;;;;;;;;5104510;28;19931;-88
2022/07/02 11:32:40;;;;;;;;;;;;;;;;;;5059467;28;19936;-87
2022/07/02 11:35:06;;;;;;;;;;;;;;;;;;5078973;28;19971;-87
2022/07/02 11:37:32;;;;;;;;;;;;;;;;;;5076242;28;19931;-87
2022/07/02 11:39:58;;;;;;;;;;;;;;;;;;5085829;28;19970;-87
2022/07/02 11:42:24;;;;;;;;;;;;;;;;;;5092949;28;20007;-87
2022/07/02 11:44:50;;;;;;;;;;;;;;;;;;5077398;28;19935;-88
2022/07/02 11:47:19;;;;;;;;;;;;;;;;;;5104676;28;19977;-89
2022/07/02 11:49:45;;;;;;;;;;;;;;;;;;5102866;28;19928;-88
2022/07/02 11:52:11;;;;;;;;;;;;;;;;;;5063853;28;19986;-88
2022/07/02 11:54:36;;;;;;;;;;;;;;;;;;5085130;28;19924;-87
2022/07/02 11:57:02;;;;;;;;;;;;;;;;;;5075190;28;19924;-88
2022/07/02 11:59:28;;;;;;;;;;;;;;;;;;5064571;28;19964;-87
2022/07/02 12:01:54;;;;;;;;;;;;;;;;;;5076588;28;19931;-89
2022/07/02 12:04:20;;;;;;;;;;;;;;;;;;5081893;28;19943;-87
2022/07/02 12:06:46;;;;;;;;;;;;;;;;;;5075289;28;20291;-88
2022/07/02 12:09:12;;;;;;;;;;;;;;;;;;5061473;28;19970;-89
2022/07/02 12:11:38;;;;;;;;;;;;;;;;;;5081044;28;19928;-88
2022/07/02 12:14:05;;;;;;;;;;;;;;;;;;5109376;28;20623;-87
2022/07/02 12:16:31;;;;;;;;;;;;;;;;;;5075281;28;20003;-86
2022/07/02 12:18:57;;;;;;;;;;;;;;;;;;5091104;28;20397;-88
2022/07/02 12:21:23;;;;;;;;;;;;;;;;;;5074427;28;20018;-87
2022/07/02 12:23:48;;;;;;;;;;;;;;;;;;5075112;28;20033;-88
2022/07/02 12:26:14;;;;;;;;;;;;;;;;;;5079176;28;20636;-87
2022/07/02 12:31:25;;;;;;;;;;;;;;;;;;5109115;28;19924;-86
2022/07/02 12:33:51;;;;;;;;;;;;;;;;;;5109377;27;19924;-88
2022/07/02 12:36:17;;;;;;;;;;;;;;;;;;5057953;28;19935;-87
2022/07/02 12:38:43;;;;;;;;;;;;;;;;;;5082209;28;19924;-87
2022/07/02 12:41:09;;;;;;;;;;;;;;;;;;5086315;28;19928;-88
2022/07/02 12:43:35;;;;;;;;;;;;;;;;;;5075365;28;19925;-88
2022/07/02 12:46:01;;;;;;;;;;;;;;;;;;5091386;28;20450;-88
2022/07/02 12:48:26;;;;;;;;;;;;;;;;;;5075367;28;20385;-88
2022/07/02 12:50:53;;;;;;;;;;;;;;;;;;5075072;28;20359;-88
2022/07/02 12:53:22;;;;;;;;;;;;;;;;;;5105657;28;19927;-88
2022/07/02 12:55:48;;;;;;;;;;;;;;;;;;5081869;28;19924;-87
2022/07/02 12:58:15;;;;;;;;;;;;;;;;;;5057844;28;19935;-87
2022/07/02 13:00:41;;;;;;;;;;;;;;;;;;5074998;28;19973;-88
2022/07/02 13:03:07;;;;;;;;;;;;;;;;;;5111361;28;19924;-87
2022/07/02 13:05:33;;;;;;;;;;;;;;;;;;5095177;28;19924;-86
2022/07/02 13:07:59;;;;;;;;;;;;;;;;;;5069696;28;19923;-87
2022/07/02 13:10:25;;;;;;;;;;;;;;;;;;5097828;28;19989;-87
2022/07/02 13:12:51;;;;;;;;;;;;;;;;;;5091818;28;20379;-89
2022/07/02 13:15:17;;;;;;;;;;;;;;;;;;5074395;28;20391;-88
2022/07/02 13:17:43;;;;;;;;;;;;;;;;;;5074917;28;19930;-87
2022/07/02 13:20:10;;;;;;;;;;;;;;;;;;5064733;28;19924;-88
2022/07/02 13:22:36;;;;;;;;;;;;;;;;;;5093271;28;20308;-87
2022/07/02 13:25:02;;;;;;;;;;;;;;;;;;5091348;28;19924;-88
2022/07/02 13:27:28;;;;;;;;;;;;;;;;;;5075993;28;19947;-86
2022/07/02 13:29:55;;;;;;;;;;;;;;;;;;5091898;28;20371;-87
2022/07/02 13:32:21;;;;;;;;;;;;;;;;;;5104914;28;19932;-87
2022/07/02 13:34:47;;;;;;;;;;;;;;;;;;5074638;28;19924;-86
2022/07/02 13:37:13;;;;;;;;;;;;;;;;;;5064201;28;19970;-87
2022/07/02 13:39:42;;;;;;;;;;;;;;;;;;5091827;28;20009;-86
2022/07/02 13:42:08;;;;;;;;;;;;;;;;;;5074180;28;19924;-87
2022/07/02 13:44:33;;;;;;;;;;;;;;;;;;5073136;28;19924;-88
2022/07/02 13:46:59;;;;;;;;;;;;;;;;;;5089963;28;20144;-88
2022/07/02 13:49:25;;;;;;;;;;;;;;;;;;5090844;28;20367;-87
2022/07/02 13:51:51;;;;;;;;;;;;;;;;;;5075907;28;19928;-88
2022/07/02 13:54:17;;;;;;;;;;;;;;;;;;5072946;28;20420;-87
2022/07/02 13:56:43;;;;;;;;;;;;;;;;;;5095077;28;19924;-87
2022/07/02 13:59:09;;;;;;;;;;;;;;;;;;5065084;28;20016;-88
2022/07/02 14:01:35;;;;;;;;;;;;;;;;;;5087072;28;20367;-87
2022/07/02 14:04:01;;;;;;;;;;;;;;;;;;5112922;28;19923;-87
2022/07/02 14:06:27;;;;;;;;;;;;;;;;;;5098561;28;19930;-87
2022/07/02 14:08:53;;;;;;;;;;;;;;;;;;5062238;28;20019;-87
2022/07/02 14:11:19;;;;;;;;;;;;;;;;;;5077680;28;20378;-79
2022/07/02 14:13:45;;;;;;;;;;;;;;;;;;5069506;28;19924;-86
2022/07/02 14:16:11;;;;;;;;;;;;;;;;;;5092946;28;20363;-86
2022/07/02 14:18:37;;;;;;;;;;;;;;;;;;5077550;28;19924;-85
2022/07/02 14:21:03;;;;;;;;;;;;;;;;;;5076248;28;20393;-85
2022/07/02 14:23:29;;;;;;;;;;;;;;;;;;5094010;28;19932;-84
2022/07/02 14:25:55;;;;;;;;;;;;;;;;;;5094776;28;19977;-85
2022/07/02 14:28:21;;;;;;;;;;;;;;;;;;5060000;28;19924;-85
2022/07/02 14:30:47;;;;;;;;;;;;;;;;;;5076763;28;19933;-85
2022/07/02 14:33:13;;;;;;;;;;;;;;;;;;5064552;28;19971;-85
2022/07/02 14:35:39;;;;;;;;;;;;;;;;;;5096281;28;20036;-85
2022/07/02 14:38:04;;;;;;;;;;;;;;;;;;5097684;28;19928;-85
2022/07/02 14:40:30;;;;;;;;;;;;;;;;;;5082819;28;19935;-87
2022/07/02 14:42:56;;;;;;;;;;;;;;;;;;5085408;28;19931;-88
2022/07/02 14:45:22;;;;;;;;;;;;;;;;;;5093824;28;19927;-85
2022/07/02 14:47:48;;;;;;;;;;;;;;;;;;5067588;28;19924;-86
2022/07/02 14:50:14;;;;;;;;;;;;;;;;;;5089147;28;19924;-85
2022/07/02 14:52:40;;;;;;;;;;;;;;;;;;5085426;28;20023;-85
2022/07/02 14:55:06;;;;;;;;;;;;;;;;;;5110837;27;19928;-85
2022/07/02 14:57:32;;;;;;;;;;;;;;;;;;5062715;28;19971;-85
2022/07/02 14:59:58;;;;;;;;;;;;;;;;;;5076597;28;19924;-85
2022/07/02 15:02:24;;;;;;;;;;;;;;;;;;5092130;28;19972;-85
2022/07/02 15:04:50;;;;;;;;;;;;;;;;;;5093935;28;20025;-85
2022/07/02 15:07:16;;;;;;;;;;;;;;;;;;5092520;28;19928;-85
2022/07/02 15:09:42;;;;;;;;;;;;;;;;;;5076762;28;20010;-85
2022/07/02 15:12:08;;;;;;;;;;;;;;;;;;5094926;28;19931;-85
2022/07/02 15:17:19;;;;;;;;;;;;;;;;;;5075799;28;19969;-88
2022/07/02 15:19:45;;;;;;;;;;;;;;;;;;5076951;28;20031;-88
2022/07/02 15:22:11;;;;;;;;;;;;;;;;;;5068363;28;19924;-87
2022/07/02 15:24:37;;;;;;;;;;;;;;;;;;5078944;28;19930;-85
2022/07/02 15:27:03;;;;;;;;;;;;;;;;;;5106743;28;19924;-85
2022/07/02 15:29:28;;;;;;;;;;;;;;;;;;5076102;28;19924;-84
2022/07/02 15:31:54;;;;;;;;;;;;;;;;;;5082390;28;19931;-85
2022/07/02 15:34:21;;;;;;;;;;;;;;;;;;5110137;27;19934;-85
2022/07/02 15:36:47;;;;;;;;;;;;;;;;;;5099979;28;19924;-87
2022/07/02 15:39:13;;;;;;;;;;;;;;;;;;5085176;28;19973;-87
2022/07/02 15:41:39;;;;;;;;;;;;;;;;;;5075782;28;20015;-85
2022/07/02 15:44:04;;;;;;;;;;;;;;;;;;5080943;28;19924;-86
2022/07/02 15:46:30;;;;;;;;;;;;;;;;;;5092070;28;19935;-86
2022/07/02 15:48:56;;;;;;;;;;;;;;;;;;5085103;28;19977;-87
2022/07/02 15:51:22;;;;;;;;;;;;;;;;;;5092491;28;20029;-86
2022/07/02 15:53:51;;;;;;;;;;;;;;;;;;5079650;28;20398;-86
2022/07/02 15:56:17;;;;;;;;;;;;;;;;;;5075672;28;19974;-86
2022/07/02 15:58:43;;;;;;;;;;;;;;;;;;5092037;28;19924;-86
2022/07/02 16:01:09;;;;;;;;;;;;;;;;;;5064463;28;19924;-86
2022/07/02 16:03:35;;;;;;;;;;;;;;;;;;5087457;28;20011;-85
2022/07/02 16:06:01;;;;;;;;;;;;;;;;;;5089796;28;19969;-85
2022/07/02 16:08:27;;;;;;;;;;;;;;;;;;5092096;28;19931;-85
2022/07/02 16:10:53;;;;;;;;;;;;;;;;;;5058627;28;19924;-86
2022/07/02 16:13:19;;;;;;;;;;;;;;;;;;5091649;28;19924;-88
2022/07/02 16:15:45;;;;;;;;;;;;;;;;;;5074498;28;19954;-86
2022/07/02 16:18:11;;;;;;;;;;;;;;;;;;5075059;28;19924;-86
2022/07/02 16:20:37;;;;;;;;;;;;;;;;;;5090330;28;20019;-85
2022/07/02 16:23:03;;;;;;;;;;;;;;;;;;5092151;28;19986;-85
2022/07/02 16:25:28;;;;;;;;;;;;;;;;;;5076078;28;19931;-84
2022/07/02 16:27:54;;;;;;;;;;;;;;;;;;5108956;28;19931;-86
2022/07/02 16:30:20;;;;;;;;;;;;;;;;;;5084127;28;19935;-85
2022/07/02 16:32:46;;;;;;;;;;;;;;;;;;5075489;28;19924;-85
2022/07/02 16:35:13;;;;;;;;;;;;;;;;;;5066496;28;20394;-86
2022/07/02 16:37:39;;;;;;;;;;;;;;;;;;5083894;28;20045;-86
2022/07/02 16:40:05;;;;;;;;;;;;;;;;;;5073637;28;20014;-85
2022/07/02 16:42:31;;;;;;;;;;;;;;;;;;5074800;28;19939;-85
2022/07/02 16:44:56;;;;;;;;;;;;;;;;;;5068571;28;20410;-86
2022/07/02 16:47:23;;;;;;;;;;;;;;;;;;5091664;28;20372;-86
2022/07/02 16:49:49;;;;;;;;;;;;;;;;;;5094702;28;19959;-85
2022/07/02 16:52:14;;;;;;;;;;;;;;;;;;5097102;28;20013;-85